createdAt,value
2019-02-20T00:01:46.109Z,0.20
2019-02-20T00:03:52.237Z,0.30
2019-02-20T00:05:59.109Z,0.30
2019-02-20T00:08:04.580Z,0.40
2019-02-20T00:10:10.277Z,0.50
2019-02-20T00:12:15.776Z,0.50
2019-02-20T00:14:21.284Z,0.20
2019-02-20T00:16:26.742Z,0.00
2019-02-20T00:18:38.849Z,-0.20
2019-02-20T00:20:44.282Z,-0.20
2019-02-20T00:22:49.698Z,-0.40
2019-02-20T00:24:56.234Z,-0.30
2019-02-20T00:27:01.786Z,-0.50
2019-02-20T00:29:07.270Z,-0.50
2019-02-20T00:31:14.619Z,-0.70
2019-02-20T00:33:20.198Z,-0.70
2019-02-20T00:35:25.862Z,-0.80
2019-02-20T00:37:31.305Z,-0.80
2019-02-20T00:39:37.518Z,-0.90
2019-02-20T00:41:45.394Z,-0.80
2019-02-20T00:44:09.046Z,-0.60
2019-02-20T00:46:23.009Z,-0.50
2019-02-20T00:49:02.758Z,-0.40
2019-02-20T00:51:30.115Z,-0.50
2019-02-20T00:53:40.945Z,-0.60
2019-02-20T00:55:46.337Z,-0.70
2019-02-20T00:57:52.061Z,-0.90
2019-02-20T00:59:59.854Z,-0.90
2019-02-20T01:02:05.382Z,-0.80
2019-02-20T01:04:10.913Z,-0.90
2019-02-20T01:06:16.336Z,-0.90
2019-02-20T01:08:21.783Z,-0.80
2019-02-20T01:10:27.787Z,-0.90
2019-02-20T01:12:34.162Z,-1.00
2019-02-20T01:14:39.655Z,-1.00
2019-02-20T01:16:45.078Z,-1.10
2019-02-20T01:18:51.569Z,-1.10
2019-02-20T01:20:57.023Z,-1.10
2019-02-20T01:23:02.501Z,-1.00
2019-02-20T01:25:08.849Z,-0.70
2019-02-20T01:27:15.173Z,-0.50
2019-02-20T01:29:20.772Z,-0.30
2019-02-20T01:31:26.165Z,-0.40
2019-02-20T01:33:31.761Z,-0.40
2019-02-20T01:35:37.142Z,-0.30
2019-02-20T01:37:48.549Z,-0.30
2019-02-20T01:39:54.613Z,-0.30
2019-02-20T01:42:00.669Z,-0.40
2019-02-20T01:44:08.673Z,-0.50
2019-02-20T01:46:14.107Z,-0.60
2019-02-20T01:48:19.506Z,-0.60
2019-02-20T01:50:30.823Z,-0.70
2019-02-20T01:52:37.053Z,-0.70
2019-02-20T01:54:42.605Z,-0.60
2019-02-20T01:56:48.555Z,-0.60
2019-02-20T01:58:53.942Z,-0.40
2019-02-20T02:00:59.745Z,-0.30
2019-02-20T02:03:07.445Z,0.00
2019-02-20T02:05:15.712Z,0.00
2019-02-20T02:07:21.634Z,0.10
2019-02-20T02:09:32.916Z,0.00
2019-02-20T02:11:38.642Z,-0.20
2019-02-20T02:13:44.087Z,-0.30
2019-02-20T02:15:49.535Z,-0.30
2019-02-20T02:17:55.015Z,-0.30
2019-02-20T02:20:00.438Z,-0.30
2019-02-20T02:22:09.422Z,-0.30
2019-02-20T02:24:19.081Z,-0.20
2019-02-20T02:26:25.157Z,-0.30
2019-02-20T02:28:30.545Z,-0.20
2019-02-20T02:30:36.402Z,-0.20
2019-02-20T02:32:41.846Z,-0.30
2019-02-20T02:34:51.088Z,-0.20
2019-02-20T02:36:56.733Z,0.00
2019-02-20T02:39:02.185Z,0.00
2019-02-20T02:41:14.181Z,0.00
2019-02-20T02:43:19.984Z,0.00
2019-02-20T02:45:26.687Z,0.20
2019-02-20T02:47:33.186Z,0.10
2019-02-20T02:49:38.849Z,0.10
2019-02-20T02:51:44.819Z,0.10
2019-02-20T02:53:50.285Z,0.10
2019-02-20T02:55:55.690Z,0.00
2019-02-20T02:58:01.354Z,-0.30
2019-02-20T03:00:21.038Z,-0.40
2019-02-20T03:02:26.563Z,-0.60
2019-02-20T03:04:31.994Z,-0.60
2019-02-20T03:06:37.599Z,-0.70
2019-02-20T03:08:43.185Z,-0.60
2019-02-20T03:10:48.581Z,1.80
2019-02-20T03:12:57.322Z,2.80
2019-02-20T03:15:03.018Z,3.10
2019-02-20T03:17:09.371Z,2.80
2019-02-20T03:19:14.784Z,2.30
2019-02-20T03:21:20.645Z,1.30
2019-02-20T03:23:26.045Z,0.80
2019-02-20T03:25:33.947Z,0.50
2019-02-20T03:27:39.346Z,0.40
2019-02-20T03:29:45.004Z,0.30
2019-02-20T03:31:50.693Z,0.20
2019-02-20T03:33:56.276Z,0.00
2019-02-20T03:36:01.675Z,-0.20
2019-02-20T03:38:07.086Z,-0.30
2019-02-20T03:40:13.510Z,-0.50
2019-02-20T03:42:19.032Z,-0.50
2019-02-20T03:44:27.858Z,-0.60
2019-02-20T03:46:33.383Z,-0.70
2019-02-20T03:48:39.012Z,-0.80
2019-02-20T03:50:45.525Z,-0.80
2019-02-20T03:52:51.331Z,-0.90
2019-02-20T03:54:56.809Z,-1.00
2019-02-20T03:57:02.681Z,-0.90
2019-02-20T03:59:08.133Z,-0.90
2019-02-20T04:01:13.545Z,-0.80
2019-02-20T04:03:19.016Z,-0.70
2019-02-20T04:05:24.414Z,-0.60
2019-02-20T04:07:29.930Z,-0.60
2019-02-20T04:09:35.432Z,-0.60
2019-02-20T04:11:40.832Z,-0.50
2019-02-20T04:13:46.317Z,-0.40
2019-02-20T04:15:51.806Z,-0.40
2019-02-20T04:17:57.527Z,-0.50
2019-02-20T04:20:03.026Z,-0.50
2019-02-20T04:22:09.626Z,-0.50
2019-02-20T04:24:15.183Z,-0.40
2019-02-20T04:26:20.590Z,-0.40
2019-02-20T04:28:31.962Z,-0.30
2019-02-20T04:30:37.431Z,-0.20
2019-02-20T04:32:43.147Z,-0.20
2019-02-20T04:34:48.910Z,-0.20
2019-02-20T04:36:54.460Z,-0.20
2019-02-20T04:38:59.906Z,-0.10
2019-02-20T04:41:05.575Z,0.00
2019-02-20T04:43:11.487Z,0.10
2019-02-20T04:45:17.029Z,0.10
2019-02-20T04:47:22.561Z,0.20
2019-02-20T04:49:28.017Z,0.20
2019-02-20T04:51:33.874Z,0.00
2019-02-20T04:53:39.467Z,0.20
2019-02-20T04:55:45.616Z,0.20
2019-02-20T04:58:25.813Z,0.20
2019-02-20T05:00:33.341Z,0.30
2019-02-20T05:02:39.221Z,0.30
2019-02-20T05:04:44.612Z,0.40
2019-02-20T05:06:55.957Z,0.60
2019-02-20T05:09:01.398Z,0.80
2019-02-20T05:11:07.601Z,0.80
2019-02-20T05:13:14.195Z,0.80
2019-02-20T05:15:19.923Z,0.80
2019-02-20T05:17:25.418Z,0.60
2019-02-20T05:19:31.778Z,0.60
2019-02-20T05:21:37.302Z,0.60
2019-02-20T05:23:43.038Z,0.60
2019-02-20T05:25:51.616Z,0.60
2019-02-20T05:27:57.378Z,0.60
2019-02-20T05:30:03.651Z,0.60
2019-02-20T05:32:09.074Z,0.50
2019-02-20T05:34:14.624Z,0.40
2019-02-20T05:36:20.102Z,0.50
2019-02-20T05:38:27.625Z,0.30
2019-02-20T05:40:33.030Z,0.30
2019-02-20T05:42:38.975Z,0.20
2019-02-20T05:44:44.379Z,0.00
2019-02-20T05:46:49.956Z,0.00
2019-02-20T05:48:56.190Z,-0.20
2019-02-20T05:51:07.893Z,-0.20
2019-02-20T05:53:13.288Z,0.00
2019-02-20T05:55:20.079Z,1.00
2019-02-20T05:57:25.622Z,1.30
2019-02-20T05:59:31.507Z,1.30
2019-02-20T06:01:36.933Z,1.20
2019-02-20T06:03:44.298Z,1.20
2019-02-20T06:05:49.722Z,1.10
2019-02-20T06:07:55.207Z,1.30
2019-02-20T06:10:01.703Z,1.20
2019-02-20T06:12:07.728Z,1.00
2019-02-20T06:14:13.585Z,1.00
2019-02-20T06:16:23.311Z,1.00
2019-02-20T06:18:28.985Z,1.10
2019-02-20T06:20:34.952Z,1.40
2019-02-20T06:22:40.445Z,1.40
2019-02-20T06:24:45.957Z,1.50
2019-02-20T06:26:51.751Z,1.60
2019-02-20T06:29:03.430Z,1.70
2019-02-20T06:31:10.725Z,1.60
2019-02-20T06:33:16.126Z,1.70
2019-02-20T06:35:21.581Z,1.70
2019-02-20T06:37:27.029Z,1.90
2019-02-20T06:39:32.443Z,2.10
2019-02-20T06:41:43.806Z,2.10
2019-02-20T06:43:50.089Z,1.70
2019-02-20T06:45:55.698Z,1.50
2019-02-20T06:48:01.152Z,1.50
2019-02-20T06:50:06.877Z,1.50
2019-02-20T06:52:12.273Z,1.60
2019-02-20T06:54:20.562Z,1.80
2019-02-20T06:56:26.057Z,2.00
2019-02-20T06:58:31.851Z,2.10
2019-02-20T07:00:37.274Z,2.20
2019-02-20T07:02:43.408Z,2.40
2019-02-20T07:05:25.073Z,2.50
2019-02-20T07:08:09.349Z,2.60
2019-02-20T07:10:58.942Z,2.50
2019-02-20T07:13:30.538Z,2.70
2019-02-20T07:16:11.397Z,2.80
2019-02-20T07:19:02.145Z,3.00
2019-02-20T07:21:45.826Z,3.30
2019-02-20T07:24:25.278Z,3.40
2019-02-20T07:27:20.077Z,3.60
2019-02-20T07:30:04.272Z,3.70
2019-02-20T07:32:09.822Z,3.70
2019-02-20T07:34:15.220Z,3.90
2019-02-20T07:36:20.698Z,4.00
2019-02-20T07:38:26.637Z,4.30
2019-02-20T07:40:32.129Z,4.50
2019-02-20T07:42:38.218Z,4.80
2019-02-20T07:44:44.513Z,5.10
2019-02-20T07:46:50.714Z,5.80
2019-02-20T07:48:57.674Z,7.00
2019-02-20T07:51:03.113Z,8.50
2019-02-20T07:53:14.441Z,9.10
2019-02-20T07:55:19.869Z,8.30
2019-02-20T07:57:25.321Z,7.90
2019-02-20T07:59:31.861Z,7.40
2019-02-20T08:01:37.302Z,7.30
2019-02-20T08:03:46.677Z,7.30
2019-02-20T08:05:52.097Z,7.00
2019-02-20T08:07:57.713Z,6.70
2019-02-20T08:10:03.742Z,6.60
2019-02-20T08:12:09.145Z,6.70
2019-02-20T08:14:14.575Z,6.80
2019-02-20T08:16:20.197Z,7.00
2019-02-20T08:18:25.769Z,7.00
2019-02-20T08:20:31.377Z,7.00
2019-02-20T08:22:37.031Z,7.30
2019-02-20T08:24:42.461Z,7.70
2019-02-20T08:26:48.242Z,8.00
2019-02-20T08:28:53.637Z,8.10
2019-02-20T08:30:59.073Z,8.40
2019-02-20T08:33:04.750Z,8.70
2019-02-20T08:35:10.445Z,8.90
2019-02-20T08:37:16.590Z,8.60
2019-02-20T08:39:22.006Z,8.20
2019-02-20T08:41:27.827Z,8.40
2019-02-20T08:43:34.153Z,8.70
2019-02-20T08:45:39.786Z,9.00
2019-02-20T08:47:45.305Z,9.40
2019-02-20T08:49:50.749Z,9.40
2019-02-20T08:51:56.297Z,9.30
2019-02-20T08:54:01.710Z,9.20
2019-02-20T08:56:07.134Z,9.60
2019-02-20T08:58:13.102Z,10.10
2019-02-20T09:00:21.013Z,10.70
2019-02-20T09:02:26.825Z,12.30
2019-02-20T09:04:32.232Z,12.60
2019-02-20T09:06:37.771Z,11.50
2019-02-20T09:08:43.219Z,11.20
2019-02-20T09:10:49.591Z,10.70
2019-02-20T09:12:55.089Z,10.40
2019-02-20T09:15:07.305Z,10.50
2019-02-20T09:17:13.089Z,10.50
2019-02-20T09:19:18.660Z,10.40
2019-02-20T09:21:24.070Z,10.60
2019-02-20T09:23:31.201Z,10.80
2019-02-20T09:25:41.527Z,10.60
2019-02-20T09:27:45.677Z,10.40
2019-02-20T09:29:51.094Z,10.10
2019-02-20T09:31:56.578Z,10.40
2019-02-20T09:34:02.002Z,10.10
2019-02-20T09:36:07.414Z,10.50
2019-02-20T09:38:13.033Z,10.70
2019-02-20T09:40:20.742Z,11.00
2019-02-20T09:42:26.155Z,11.10
2019-02-20T09:44:34.553Z,11.40
2019-02-20T09:46:39.989Z,11.50
2019-02-20T09:48:46.054Z,11.90
2019-02-20T09:50:51.803Z,11.40
2019-02-20T09:53:00.445Z,11.90
2019-02-20T09:55:06.295Z,12.10
2019-02-20T09:57:11.862Z,12.80
2019-02-20T09:59:17.286Z,13.90
2019-02-20T10:01:22.793Z,14.60
2019-02-20T10:03:28.430Z,13.50
2019-02-20T10:05:33.943Z,14.40
2019-02-20T10:07:39.375Z,14.70
2019-02-20T10:09:44.829Z,14.40
2019-02-20T10:11:54.357Z,13.70
2019-02-20T10:14:01.079Z,13.10
2019-02-20T10:16:06.549Z,12.80
2019-02-20T10:18:12.348Z,13.00
2019-02-20T10:20:17.877Z,12.60
2019-02-20T10:22:23.356Z,12.40
2019-02-20T10:24:29.150Z,12.20
2019-02-20T10:26:35.154Z,12.60
2019-02-20T10:28:41.035Z,12.50
2019-02-20T10:30:46.483Z,12.20
2019-02-20T10:32:51.918Z,12.30
2019-02-20T10:34:57.350Z,11.90
2019-02-20T10:37:04.910Z,11.60
2019-02-20T10:39:10.398Z,11.60
2019-02-20T10:41:15.814Z,11.60
2019-02-20T10:43:21.254Z,11.50
2019-02-20T10:45:26.748Z,11.60
2019-02-20T10:47:32.317Z,11.70
2019-02-20T10:49:37.863Z,11.40
2019-02-20T10:51:43.370Z,11.70
2019-02-20T10:53:48.859Z,11.50
2019-02-20T10:55:54.257Z,11.70
2019-02-20T10:58:00.323Z,12.30
2019-02-20T11:00:08.622Z,12.50
2019-02-20T11:02:19.744Z,13.10
2019-02-20T11:04:25.250Z,13.50
2019-02-20T11:06:30.941Z,13.40
2019-02-20T11:08:38.213Z,13.50
2019-02-20T11:10:43.793Z,13.00
2019-02-20T11:12:50.188Z,12.60
2019-02-20T11:14:57.570Z,12.40
2019-02-20T11:17:03.337Z,12.70
2019-02-20T11:19:08.825Z,13.30
2019-02-20T11:21:14.266Z,15.30
2019-02-20T11:23:19.825Z,17.00
2019-02-20T11:25:24.948Z,17.90
2019-02-20T11:27:36.404Z,18.10
2019-02-20T11:29:41.521Z,18.70
2019-02-20T11:31:46.898Z,17.20
2019-02-20T11:33:53.977Z,17.00
2019-02-20T11:36:00.198Z,16.10
2019-02-20T11:38:05.373Z,16.80
2019-02-20T11:40:14.313Z,16.40
2019-02-20T11:42:21.029Z,16.60
2019-02-20T11:44:26.510Z,17.90
2019-02-20T11:46:37.649Z,17.70
2019-02-20T11:48:42.781Z,18.60
2019-02-20T11:50:48.129Z,19.10
2019-02-20T11:53:05.896Z,19.70
2019-02-20T11:55:11.458Z,18.60
2019-02-20T11:57:17.426Z,18.60
2019-02-20T11:59:22.582Z,17.40
2019-02-20T12:01:28.214Z,18.20
2019-02-20T12:03:33.341Z,18.60
2019-02-20T12:05:38.449Z,19.90
2019-02-20T12:07:43.765Z,20.10
2019-02-20T12:09:48.967Z,21.40
2019-02-20T12:11:55.574Z,20.80
2019-02-20T12:14:00.751Z,19.70
2019-02-20T12:16:05.927Z,20.00
2019-02-20T12:18:17.445Z,19.70
2019-02-20T12:20:19.382Z,17.90
2019-02-20T12:22:24.518Z,18.70
2019-02-20T12:24:29.682Z,19.10
2019-02-20T12:26:35.278Z,18.10
2019-02-20T12:28:40.629Z,18.50
2019-02-20T12:30:48.195Z,18.60
2019-02-20T12:32:53.337Z,18.00
2019-02-20T12:34:58.962Z,17.60
2019-02-20T12:37:05.513Z,16.90
2019-02-20T12:39:10.919Z,16.60
2019-02-20T12:41:16.078Z,16.00
2019-02-20T12:43:21.297Z,17.50
2019-02-20T12:45:26.433Z,18.60
2019-02-20T12:47:31.564Z,17.80
2019-02-20T12:49:36.716Z,17.00
2019-02-20T12:51:41.846Z,17.20
2019-02-20T12:53:46.959Z,17.00
2019-02-20T12:55:54.501Z,16.30
2019-02-20T12:57:59.894Z,16.00
2019-02-20T13:00:05.597Z,16.30
2019-02-20T13:02:11.098Z,17.00
2019-02-20T13:04:16.232Z,17.00
2019-02-20T13:06:21.376Z,17.70
2019-02-20T13:08:26.508Z,18.10
2019-02-20T13:10:31.716Z,18.80
2019-02-20T13:12:36.870Z,19.90
2019-02-20T13:14:42.035Z,19.50
2019-02-20T13:16:47.396Z,19.60
2019-02-20T13:18:52.585Z,18.10
2019-02-20T13:20:59.324Z,17.70
2019-02-20T13:23:04.472Z,16.00
2019-02-20T13:25:09.672Z,16.60
2019-02-20T13:27:22.476Z,15.60
2019-02-20T13:29:21.792Z,15.90
2019-02-20T13:31:26.954Z,17.10
2019-02-20T13:33:34.990Z,15.30
2019-02-20T13:35:40.373Z,15.00
2019-02-20T13:37:45.513Z,15.40
2019-02-20T13:39:52.145Z,14.80
2019-02-20T13:41:57.545Z,15.30
2019-02-20T13:44:02.781Z,15.60
2019-02-20T13:46:08.135Z,15.20
2019-02-20T13:48:13.510Z,15.00
2019-02-20T13:50:20.430Z,15.60
2019-02-20T13:52:25.630Z,15.80
2019-02-20T13:54:31.274Z,15.50
2019-02-20T13:56:36.515Z,15.60
2019-02-20T13:58:41.716Z,15.30
2019-02-20T14:00:47.299Z,14.60
2019-02-20T14:02:52.495Z,14.70
2019-02-20T14:05:00.534Z,14.60
2019-02-20T14:07:06.033Z,14.60
2019-02-20T14:09:11.525Z,14.10
2019-02-20T14:11:16.774Z,14.20
2019-02-20T14:13:22.278Z,14.00
2019-02-20T14:15:28.080Z,13.80
2019-02-20T14:17:34.313Z,13.70
2019-02-20T14:19:40.321Z,13.80
2019-02-20T14:21:45.814Z,13.60
2019-02-20T14:23:51.346Z,13.40
2019-02-20T14:25:57.569Z,13.30
2019-02-20T14:28:03.601Z,13.40
2019-02-20T14:30:10.258Z,13.60
2019-02-20T14:32:15.757Z,13.60
2019-02-20T14:34:21.359Z,13.80
2019-02-20T14:36:27.114Z,14.10
2019-02-20T14:38:35.787Z,14.00
2019-02-20T14:40:41.554Z,13.60
2019-02-20T14:42:47.277Z,13.70
2019-02-20T14:44:54.433Z,13.30
2019-02-20T14:47:00.255Z,13.40
2019-02-20T14:49:05.791Z,13.20
2019-02-20T14:51:11.365Z,13.30
2019-02-20T14:53:16.882Z,13.20
2019-02-20T14:55:22.380Z,12.90
2019-02-20T14:57:27.881Z,12.70
2019-02-20T14:59:33.461Z,12.30
2019-02-20T15:01:38.966Z,12.20
2019-02-20T15:03:44.773Z,12.10
2019-02-20T15:05:50.209Z,11.90
2019-02-20T15:07:55.705Z,11.80
2019-02-20T15:10:01.882Z,11.80
2019-02-20T15:12:07.599Z,11.70
2019-02-20T15:14:13.090Z,11.70
2019-02-20T15:16:20.522Z,11.70
2019-02-20T15:18:26.082Z,11.60
2019-02-20T15:20:32.338Z,11.60
2019-02-20T15:22:37.816Z,11.60
2019-02-20T15:24:43.686Z,11.40
2019-02-20T15:26:50.310Z,11.10
2019-02-20T15:28:55.783Z,11.00
2019-02-20T15:31:02.245Z,10.80
2019-02-20T15:33:08.168Z,10.80
2019-02-20T15:35:13.902Z,10.60
2019-02-20T15:37:19.429Z,10.50
2019-02-20T15:39:25.728Z,10.40
2019-02-20T15:41:31.687Z,10.20
2019-02-20T15:43:37.560Z,10.20
2019-02-20T15:45:43.049Z,9.90
2019-02-20T15:47:48.549Z,9.90
2019-02-20T15:49:54.325Z,9.70
2019-02-20T15:52:00.115Z,9.60
2019-02-20T15:54:06.629Z,9.50
2019-02-20T15:56:12.069Z,9.40
2019-02-20T15:58:17.642Z,9.20
2019-02-20T16:00:25.460Z,9.10
2019-02-20T16:02:31.266Z,8.90
2019-02-20T16:04:36.789Z,8.90
2019-02-20T16:06:44.374Z,8.70
2019-02-20T16:08:50.208Z,8.60
2019-02-20T16:10:56.028Z,8.40
2019-02-20T16:13:01.521Z,8.30
2019-02-20T16:15:07.698Z,8.20
2019-02-20T16:17:13.557Z,8.00
2019-02-20T16:19:19.941Z,7.90
2019-02-20T16:21:25.669Z,7.80
2019-02-20T16:23:31.146Z,7.70
2019-02-20T16:25:39.489Z,7.60
2019-02-20T16:27:47.412Z,7.50
2019-02-20T16:29:52.226Z,7.40
2019-02-20T16:31:57.697Z,7.40
2019-02-20T16:34:03.193Z,7.40
2019-02-20T16:36:08.641Z,7.20
2019-02-20T16:38:14.409Z,7.10
2019-02-20T16:40:21.176Z,7.00
2019-02-20T16:42:27.566Z,6.90
2019-02-20T16:44:33.057Z,6.80
2019-02-20T16:46:38.470Z,6.60
2019-02-20T16:48:43.994Z,6.60
2019-02-20T16:50:50.001Z,6.40
2019-02-20T16:52:55.988Z,6.30
2019-02-20T16:55:04.410Z,6.20
2019-02-20T16:57:09.911Z,6.20
2019-02-20T16:59:17.014Z,6.10
2019-02-20T17:01:22.817Z,6.00
2019-02-20T17:03:28.573Z,6.00
2019-02-20T17:05:35.241Z,6.00
2019-02-20T17:07:40.845Z,6.00
2019-02-20T17:09:48.289Z,6.00
2019-02-20T17:11:54.121Z,5.90
2019-02-20T17:14:00.011Z,5.90
2019-02-20T17:16:05.581Z,5.80
2019-02-20T17:18:12.321Z,5.80
2019-02-20T17:20:18.334Z,5.80
2019-02-20T17:22:27.004Z,5.70
2019-02-20T17:24:33.415Z,5.60
2019-02-20T17:26:39.198Z,5.50
2019-02-20T17:28:46.814Z,5.40
2019-02-20T17:30:52.318Z,5.30
2019-02-20T17:32:57.810Z,5.30
2019-02-20T17:35:03.421Z,5.30
2019-02-20T17:37:08.989Z,5.20
2019-02-20T17:39:14.553Z,5.30
2019-02-20T17:41:20.845Z,5.30
2019-02-20T17:43:26.313Z,5.30
2019-02-20T17:45:31.850Z,5.20
2019-02-20T17:47:37.943Z,5.10
2019-02-20T17:49:44.137Z,5.10
2019-02-20T17:51:49.703Z,5.10
2019-02-20T17:53:55.395Z,5.10
2019-02-20T17:56:00.965Z,5.10
2019-02-20T17:58:14.591Z,5.10
2019-02-20T18:00:15.569Z,5.10
2019-02-20T18:02:21.013Z,5.10
2019-02-20T18:04:26.414Z,5.10
2019-02-20T18:06:31.845Z,5.10
2019-02-20T18:08:37.338Z,5.10
2019-02-20T18:10:43.371Z,5.10
2019-02-20T18:12:50.206Z,5.10
2019-02-20T18:14:55.652Z,5.00
2019-02-20T18:17:01.578Z,5.00
2019-02-20T18:19:07.850Z,4.90
2019-02-20T18:21:15.176Z,4.90
2019-02-20T18:23:20.677Z,4.90
2019-02-20T18:25:26.158Z,4.90
2019-02-20T18:27:32.407Z,4.90
2019-02-20T18:29:38.740Z,4.90
2019-02-20T18:31:50.320Z,4.80
2019-02-20T18:33:55.950Z,4.70
2019-02-20T18:36:02.464Z,4.60
2019-02-20T18:38:07.887Z,4.60
2019-02-20T18:40:14.710Z,4.60
2019-02-20T18:42:20.845Z,4.60
2019-02-20T18:44:26.371Z,4.70
2019-02-20T18:46:34.981Z,4.60
2019-02-20T18:48:40.571Z,4.60
2019-02-20T18:50:52.110Z,4.50
2019-02-20T18:52:59.235Z,4.50
2019-02-20T18:55:24.667Z,4.50
2019-02-20T18:57:36.723Z,4.50
2019-02-20T18:59:42.197Z,4.50
2019-02-20T19:01:48.354Z,4.50
2019-02-20T19:03:54.020Z,4.50
2019-02-20T19:05:59.786Z,4.50
2019-02-20T19:08:32.422Z,4.60
2019-02-20T19:10:38.052Z,4.60
2019-02-20T19:13:22.223Z,4.50
2019-02-20T19:15:55.603Z,4.50
2019-02-20T19:18:40.435Z,4.40
2019-02-20T19:21:26.557Z,4.30
2019-02-20T19:24:05.587Z,4.30
2019-02-20T19:26:29.268Z,4.20
2019-02-20T19:29:23.818Z,4.20
2019-02-20T19:32:16.410Z,4.20
2019-02-20T19:35:05.635Z,4.10
2019-02-20T19:37:47.805Z,4.20
2019-02-20T19:40:43.330Z,4.30
2019-02-20T19:43:37.237Z,4.20
2019-02-20T19:46:07.715Z,4.10
2019-02-20T19:48:29.272Z,4.10
2019-02-20T19:51:21.854Z,4.10
2019-02-20T19:53:40.080Z,4.10
2019-02-20T19:56:15.290Z,4.10
2019-02-20T19:59:23.244Z,4.10
2019-02-20T20:02:12.864Z,4.10
2019-02-20T20:05:10.425Z,4.10
2019-02-20T20:08:11.975Z,4.20
2019-02-20T20:11:01.358Z,4.20
2019-02-20T20:13:28.594Z,4.10
2019-02-20T20:16:17.576Z,4.10
2019-02-20T20:19:09.945Z,4.00
2019-02-20T20:21:37.698Z,4.00
2019-02-20T20:24:10.350Z,4.00
2019-02-20T20:26:42.553Z,4.00
2019-02-20T20:29:29.805Z,4.00
2019-02-20T20:31:57.082Z,4.00
2019-02-20T20:34:49.445Z,4.20
2019-02-20T20:37:39.065Z,4.10
2019-02-20T20:40:17.258Z,4.00
2019-02-20T20:42:51.724Z,4.10
2019-02-20T20:45:38.280Z,4.10
2019-02-20T20:48:18.561Z,4.10
2019-02-20T20:51:13.833Z,4.10
2019-02-20T20:53:49.169Z,4.00
2019-02-20T20:56:26.963Z,4.00
2019-02-20T20:58:42.303Z,3.90
2019-02-20T21:01:24.174Z,3.90
2019-02-20T21:03:30.840Z,3.80
2019-02-20T21:06:12.163Z,3.80
2019-02-20T21:08:42.849Z,3.70
2019-02-20T21:12:00.659Z,3.80
2019-02-20T21:14:40.101Z,3.80
2019-02-20T21:17:28.174Z,3.70
2019-02-20T21:19:51.590Z,3.80
2019-02-20T21:22:45.559Z,3.70
2019-02-20T21:25:50.830Z,3.80
2019-02-20T21:28:33.323Z,3.70
2019-02-20T21:31:22.873Z,3.70
2019-02-20T21:34:12.325Z,3.70
2019-02-20T21:36:48.718Z,3.70
2019-02-20T21:39:39.349Z,3.70
2019-02-20T21:42:07.555Z,3.80
2019-02-20T21:44:48.103Z,3.80
2019-02-20T21:47:36.977Z,3.80
2019-02-20T21:50:18.353Z,3.70
2019-02-20T21:52:46.786Z,3.70
2019-02-20T21:55:14.659Z,3.60
2019-02-20T21:58:28.810Z,3.60
2019-02-20T22:01:01.161Z,3.60
2019-02-20T22:03:42.486Z,3.50
2019-02-20T22:06:08.362Z,3.50
2019-02-20T22:08:51.847Z,3.50
2019-02-20T22:11:38.735Z,3.50
2019-02-20T22:14:22.761Z,3.60
2019-02-20T22:17:02.580Z,3.60
2019-02-20T22:19:53.178Z,3.60
2019-02-20T22:22:23.481Z,3.60
2019-02-20T22:24:54.259Z,3.50
2019-02-20T22:27:26.735Z,3.50
2019-02-20T22:30:11.963Z,3.50
2019-02-20T22:32:50.663Z,3.40
2019-02-20T22:35:25.028Z,3.30
2019-02-20T22:38:12.462Z,3.30
2019-02-20T22:40:57.230Z,3.20
2019-02-20T22:43:39.999Z,3.00
2019-02-20T22:46:12.109Z,2.90
2019-02-20T22:48:32.739Z,2.80
2019-02-20T22:51:17.621Z,2.70
2019-02-20T22:54:13.058Z,2.60
2019-02-20T22:56:57.997Z,2.60
2019-02-20T22:59:32.003Z,2.40
2019-02-20T23:02:02.466Z,2.30
2019-02-20T23:04:20.453Z,2.00
2019-02-20T23:06:49.350Z,1.80
2019-02-20T23:09:24.057Z,1.90
2019-02-20T23:11:51.949Z,1.80
2019-02-20T23:14:38.242Z,1.70
2019-02-20T23:16:45.044Z,1.70
2019-02-20T23:18:51.030Z,1.70
2019-02-20T23:20:56.809Z,1.60
2019-02-20T23:23:03.181Z,1.60
2019-02-20T23:25:08.821Z,1.60
2019-02-20T23:27:14.663Z,1.50
2019-02-20T23:29:21.701Z,1.50
2019-02-20T23:31:27.350Z,1.40
2019-02-20T23:33:32.770Z,1.30
2019-02-20T23:35:38.890Z,1.30
2019-02-20T23:37:44.933Z,1.20
2019-02-20T23:39:53.491Z,1.30
2019-02-20T23:42:01.348Z,1.20
2019-02-20T23:44:06.938Z,1.10
2019-02-20T23:46:12.545Z,1.10
2019-02-20T23:48:17.963Z,1.10
2019-02-20T23:50:23.415Z,1.20
2019-02-20T23:52:28.820Z,1.20
2019-02-20T23:54:34.203Z,1.10
2019-02-20T23:56:40.334Z,1.00
2019-02-20T23:58:45.785Z,1.00
